Douradina, Brazil
Current Conditions -  °F | °C
As of 6:00 PM on Wednesday 26 Nov 2014 (Local Time) from SBMG Reporting Station
Scattered Clouds Scattered Clouds  
Wind Chill: 84°   Ceiling: Unl
Heat Index: 90°   Visibility: 6mi
Dew Point: 72°   Wind: 3mph
Humidity: 66%   Direction: 200°SSW
Pressure: 29.77"   Gusts: NA
Location:  23.38°S, 53.29°W
Report Text: SBMG 262000Z 20003KT 9999 SCT025 29/22 Q1008
Loading
Personal Weather Stations






























Interactive Weather Map New forecast layout! Learn more

10-Day Weather Forecast

Advertisements
Track Severe Weather on mobile